createdAt,value
2018-01-16T00:00:01.439Z,785.17
2018-01-16T00:00:05.766Z,785.2
2018-01-16T00:00:09.690Z,785.19
2018-01-16T00:00:13.603Z,785.22
2018-01-16T00:00:17.526Z,785.21
2018-01-16T00:00:21.559Z,785.2
2018-01-16T00:00:25.473Z,785.23
2018-01-16T00:00:29.384Z,785.21
2018-01-16T00:00:33.197Z,785.25
2018-01-16T00:00:37.217Z,785.24
2018-01-16T00:00:41.342Z,785.21
2018-01-16T00:00:45.136Z,785.22
2018-01-16T00:00:49.163Z,785.23
2018-01-16T00:00:53.181Z,785.26
2018-01-16T00:00:57.188Z,785.28
2018-01-16T00:01:01.198Z,785.24
2018-01-16T00:01:05.249Z,785.25
2018-01-16T00:01:09.165Z,785.27
2018-01-16T00:01:12.968Z,785.27
2018-01-16T00:01:16.673Z,785.24
2018-01-16T00:01:20.899Z,785.3
2018-01-16T00:01:24.935Z,785.3
2018-01-16T00:01:28.844Z,785.27
2018-01-16T00:01:32.743Z,785.24
2018-01-16T00:01:36.440Z,785.26
2018-01-16T00:01:40.351Z,785.29
2018-01-16T00:01:44.163Z,785.29
2018-01-16T00:01:47.856Z,785.34
2018-01-16T00:01:51.884Z,785.3
2018-01-16T00:01:56.023Z,785.33
2018-01-16T00:01:59.825Z,785.35
2018-01-16T00:02:03.720Z,785.32
2018-01-16T00:02:07.731Z,785.38
2018-01-16T00:02:11.627Z,785.34
2018-01-16T00:02:15.647Z,785.34
2018-01-16T00:02:19.771Z,785.37
2018-01-16T00:02:23.889Z,785.39
2018-01-16T00:02:27.902Z,785.36
2018-01-16T00:02:31.696Z,785.39
2018-01-16T00:02:35.730Z,785.4
2018-01-16T00:02:39.561Z,785.37
2018-01-16T00:02:43.470Z,785.36
2018-01-16T00:02:47.606Z,785.41
2018-01-16T00:02:51.519Z,785.39
2018-01-16T00:02:55.653Z,785.42
2018-01-16T00:02:59.668Z,785.42
2018-01-16T00:03:03.992Z,785.44
2018-01-16T00:03:07.897Z,785.44
2018-01-16T00:03:12.028Z,785.43
2018-01-16T00:03:15.943Z,785.45
2018-01-16T00:03:19.961Z,785.47
2018-01-16T00:03:23.978Z,785.49
2018-01-16T00:03:27.691Z,785.48
2018-01-16T00:03:31.517Z,785.48
2018-01-16T00:03:35.319Z,785.48
2018-01-16T00:03:39.435Z,785.47
2018-01-16T00:03:43.244Z,785.52
2018-01-16T00:03:47.162Z,785.5
2018-01-16T00:03:51.077Z,785.49
2018-01-16T00:03:54.994Z,785.52
2018-01-16T00:03:59.022Z,785.52
2018-01-16T00:04:03.135Z,785.52
2018-01-16T00:04:07.058Z,785.49
2018-01-16T00:04:10.968Z,785.51
2018-01-16T00:04:14.786Z,785.5
2018-01-16T00:04:18.490Z,785.53
2018-01-16T00:04:22.191Z,785.51
2018-01-16T00:04:26.212Z,785.56
2018-01-16T00:04:30.118Z,785.54
2018-01-16T00:04:34.049Z,785.54
2018-01-16T00:04:37.958Z,785.57
2018-01-16T00:04:42.203Z,785.57
2018-01-16T00:04:46.128Z,785.6
2018-01-16T00:04:49.823Z,785.55
2018-01-16T00:04:53.848Z,785.52
2018-01-16T00:04:57.768Z,785.53
2018-01-16T00:05:01.807Z,785.54
2018-01-16T00:05:05.930Z,785.55
2018-01-16T00:05:09.849Z,785.57
2018-01-16T00:05:13.962Z,785.54
2018-01-16T00:05:17.972Z,785.62
2018-01-16T00:05:21.976Z,785.61
2018-01-16T00:05:25.900Z,785.63
2018-01-16T00:05:29.916Z,785.64
2018-01-16T00:05:33.721Z,785.62
2018-01-16T00:05:37.632Z,785.63
2018-01-16T00:05:41.340Z,785.65
2018-01-16T00:05:45.253Z,785.64
2018-01-16T00:05:49.054Z,785.64
2018-01-16T00:05:52.874Z,785.67
2018-01-16T00:05:56.574Z,785.67
2018-01-16T00:06:00.509Z,785.7
2018-01-16T00:06:04.468Z,785.7
2018-01-16T00:06:08.512Z,785.7
2018-01-16T00:06:12.427Z,785.75
2018-01-16T00:06:16.232Z,785.7
2018-01-16T00:06:20.141Z,785.71
2018-01-16T00:06:24.049Z,785.73
2018-01-16T00:06:27.854Z,785.72
2018-01-16T00:06:31.765Z,785.73
2018-01-16T00:06:35.776Z,785.75
2018-01-16T00:06:39.891Z,785.73
2018-01-16T00:06:44.036Z,785.76
2018-01-16T00:06:47.945Z,785.73
2018-01-16T00:06:51.739Z,785.71
2018-01-16T00:06:55.965Z,785.73
2018-01-16T00:06:59.878Z,785.69
2018-01-16T00:07:04.012Z,785.72
2018-01-16T00:07:07.819Z,785.75
2018-01-16T00:07:11.736Z,785.72
2018-01-16T00:07:15.543Z,785.74
2018-01-16T00:07:19.352Z,785.78
2018-01-16T00:07:23.375Z,785.77
2018-01-16T00:07:27.280Z,785.81
2018-01-16T00:07:31.300Z,785.77
2018-01-16T00:07:35.425Z,785.81
2018-01-16T00:07:39.270Z,785.76
2018-01-16T00:07:43.073Z,785.85
2018-01-16T00:07:47.105Z,785.84
2018-01-16T00:07:50.912Z,785.83
2018-01-16T00:07:54.706Z,785.83
2018-01-16T00:07:58.600Z,785.84
2018-01-16T00:08:03.017Z,785.84
2018-01-16T00:08:06.836Z,785.87
2018-01-16T00:08:10.839Z,785.88
2018-01-16T00:08:14.863Z,785.87
2018-01-16T00:08:18.871Z,785.86
2018-01-16T00:08:22.683Z,785.88
2018-01-16T00:08:26.597Z,785.92
2018-01-16T00:08:30.404Z,785.92
2018-01-16T00:08:34.201Z,785.88
2018-01-16T00:08:38.008Z,785.9
2018-01-16T00:08:42.242Z,785.9
2018-01-16T00:08:46.174Z,785.94
2018-01-16T00:08:49.990Z,785.94
2018-01-16T00:08:54.008Z,785.96
2018-01-16T00:08:58.029Z,785.95
2018-01-16T00:09:02.087Z,785.97
2018-01-16T00:09:05.998Z,785.95
2018-01-16T00:09:09.923Z,785.98
2018-01-16T00:09:13.948Z,785.98
2018-01-16T00:09:17.857Z,786.03
2018-01-16T00:09:21.756Z,786.01
2018-01-16T00:09:25.559Z,786
2018-01-16T00:09:29.362Z,785.99
2018-01-16T00:09:33.471Z,786.03
2018-01-16T00:09:37.404Z,786.05
2018-01-16T00:09:41.514Z,786.04
2018-01-16T00:09:45.526Z,785.99
2018-01-16T00:09:49.466Z,786.06
2018-01-16T00:09:53.377Z,786.03
2018-01-16T00:09:57.270Z,786.05
2018-01-16T00:10:01.400Z,786.1
2018-01-16T00:10:05.326Z,786.08
2018-01-16T00:10:09.343Z,786.09
2018-01-16T00:10:13.356Z,786.08
2018-01-16T00:10:17.595Z,786.11
2018-01-16T00:10:21.605Z,786.08
2018-01-16T00:10:25.634Z,786.13
2018-01-16T00:10:29.806Z,786.16
2018-01-16T00:10:33.829Z,786.15
2018-01-16T00:10:37.742Z,786.16
2018-01-16T00:10:41.444Z,786.19
2018-01-16T00:10:45.357Z,786.18
2018-01-16T00:10:49.283Z,786.19
2018-01-16T00:10:53.296Z,786.2
2018-01-16T00:10:57.311Z,786.2
2018-01-16T00:11:01.233Z,786.21
2018-01-16T00:11:05.354Z,786.23
2018-01-16T00:11:09.268Z,786.22
2018-01-16T00:11:13.279Z,786.25
2018-01-16T00:11:17.087Z,786.28
2018-01-16T00:11:21.004Z,786.3
2018-01-16T00:11:24.924Z,786.27
2018-01-16T00:11:28.726Z,786.28
2018-01-16T00:11:32.523Z,786.29
2018-01-16T00:11:36.432Z,786.28
2018-01-16T00:11:40.444Z,786.32
2018-01-16T00:11:44.471Z,786.33
2018-01-16T00:11:48.281Z,786.32
2018-01-16T00:11:51.987Z,786.34
2018-01-16T00:11:55.890Z,786.35
2018-01-16T00:11:59.810Z,786.35
2018-01-16T00:12:04.017Z,786.36
2018-01-16T00:12:07.934Z,786.35
2018-01-16T00:12:11.841Z,786.38
2018-01-16T00:12:15.745Z,786.4
2018-01-16T00:12:19.649Z,786.38
2018-01-16T00:12:23.459Z,786.35
2018-01-16T00:12:27.364Z,786.38
2018-01-16T00:12:31.151Z,786.33
2018-01-16T00:12:34.946Z,786.4
2018-01-16T00:12:38.960Z,786.39
2018-01-16T00:12:42.765Z,786.38
2018-01-16T00:12:46.587Z,786.4
2018-01-16T00:12:50.398Z,786.39
2018-01-16T00:12:54.628Z,786.41
2018-01-16T00:12:58.741Z,786.42
2018-01-16T00:13:03.210Z,786.42
2018-01-16T00:13:07.233Z,786.42
2018-01-16T00:13:11.352Z,786.37
2018-01-16T00:13:15.374Z,786.36
2018-01-16T00:13:19.286Z,786.4
2018-01-16T00:13:23.307Z,786.39
2018-01-16T00:13:27.339Z,786.44
2018-01-16T00:13:31.034Z,786.49
2018-01-16T00:13:35.095Z,786.44
2018-01-16T00:13:38.997Z,786.45
2018-01-16T00:13:43.119Z,786.5
2018-01-16T00:13:46.931Z,786.48
2018-01-16T00:13:50.843Z,786.5
2018-01-16T00:13:54.743Z,786.47
2018-01-16T00:13:58.540Z,786.45
2018-01-16T00:14:02.909Z,786.51
2018-01-16T00:14:06.819Z,786.51
2018-01-16T00:14:10.616Z,786.57
2018-01-16T00:14:14.657Z,786.55
2018-01-16T00:14:18.668Z,786.54
2018-01-16T00:14:22.576Z,786.56
2018-01-16T00:14:26.402Z,786.54
2018-01-16T00:14:30.287Z,786.58
2018-01-16T00:14:34.214Z,786.57
2018-01-16T00:14:38.134Z,786.57
2018-01-16T00:14:41.984Z,786.58
2018-01-16T00:14:45.793Z,786.53
2018-01-16T00:14:49.915Z,786.61
2018-01-16T00:14:53.719Z,786.59
2018-01-16T00:14:57.840Z,786.6
2018-01-16T00:15:01.749Z,786.62
2018-01-16T00:15:05.569Z,786.59
2018-01-16T00:15:09.584Z,786.62
2018-01-16T00:15:13.712Z,786.63
2018-01-16T00:15:17.730Z,786.61
2018-01-16T00:15:21.657Z,786.56
2018-01-16T00:15:25.686Z,786.6
2018-01-16T00:15:29.611Z,786.66
2018-01-16T00:15:33.419Z,786.64
2018-01-16T00:15:37.125Z,786.67
2018-01-16T00:15:41.036Z,786.65
2018-01-16T00:15:44.946Z,786.68
2018-01-16T00:15:48.850Z,786.66
2018-01-16T00:15:52.768Z,786.72
2018-01-16T00:15:56.462Z,786.72
2018-01-16T00:16:00.378Z,786.7
2018-01-16T00:16:04.136Z,786.7
2018-01-16T00:16:07.833Z,786.69
2018-01-16T00:16:11.533Z,786.72
2018-01-16T00:16:15.640Z,786.69
2018-01-16T00:16:19.749Z,786.72
2018-01-16T00:16:23.677Z,786.69
2018-01-16T00:16:27.699Z,786.72
2018-01-16T00:16:31.499Z,786.72
2018-01-16T00:16:35.404Z,786.71
2018-01-16T00:16:39.416Z,786.69
2018-01-16T00:16:43.224Z,786.73
2018-01-16T00:16:47.122Z,786.73
2018-01-16T00:16:51.160Z,786.75
2018-01-16T00:16:55.401Z,786.74
2018-01-16T00:16:59.334Z,786.74
2018-01-16T00:17:03.242Z,786.76
2018-01-16T00:17:07.139Z,786.75
2018-01-16T00:17:11.154Z,786.78
2018-01-16T00:17:15.049Z,786.77
2018-01-16T00:17:19.077Z,786.79
2018-01-16T00:17:22.996Z,786.8
2018-01-16T00:17:26.898Z,786.81
2018-01-16T00:17:30.729Z,786.82
2018-01-16T00:17:34.734Z,786.8
2018-01-16T00:17:38.751Z,786.77
2018-01-16T00:17:42.764Z,786.82
2018-01-16T00:17:46.675Z,786.82
2018-01-16T00:17:50.689Z,786.81
2018-01-16T00:17:54.928Z,786.81
2018-01-16T00:17:58.950Z,786.86
2018-01-16T00:18:03.008Z,786.83
2018-01-16T00:18:06.700Z,786.85
2018-01-16T00:18:10.387Z,786.84
2018-01-16T00:18:14.315Z,786.85
2018-01-16T00:18:18.482Z,786.86
2018-01-16T00:18:22.413Z,786.87
2018-01-16T00:18:26.413Z,786.85
2018-01-16T00:18:30.428Z,786.88
2018-01-16T00:18:34.222Z,786.88
2018-01-16T00:18:38.230Z,786.89
2018-01-16T00:18:41.928Z,786.9
2018-01-16T00:18:45.738Z,786.89
2018-01-16T00:18:49.750Z,786.87
2018-01-16T00:18:53.747Z,786.89
2018-01-16T00:18:57.539Z,786.9
2018-01-16T00:19:01.333Z,786.92
2018-01-16T00:19:05.157Z,786.87
2018-01-16T00:19:09.077Z,786.9
2018-01-16T00:19:12.979Z,786.92
2018-01-16T00:19:16.824Z,786.89
2018-01-16T00:19:20.716Z,786.91
2018-01-16T00:19:24.630Z,786.89
2018-01-16T00:19:28.443Z,786.89
2018-01-16T00:19:32.365Z,786.85
2018-01-16T00:19:36.270Z,786.92
2018-01-16T00:19:40.385Z,786.9
2018-01-16T00:19:44.300Z,786.86
2018-01-16T00:19:48.430Z,786.91
2018-01-16T00:19:52.125Z,786.91
2018-01-16T00:19:56.256Z,786.93
2018-01-16T00:20:00.162Z,786.92
2018-01-16T00:20:04.177Z,786.92
2018-01-16T00:20:08.078Z,786.9
2018-01-16T00:20:11.783Z,786.91
2018-01-16T00:20:15.806Z,786.91
2018-01-16T00:20:19.501Z,786.88
2018-01-16T00:20:23.326Z,786.93
2018-01-16T00:20:27.141Z,786.95
2018-01-16T00:20:31.148Z,786.94
2018-01-16T00:20:34.942Z,786.93
2018-01-16T00:20:38.849Z,786.91
2018-01-16T00:20:42.875Z,786.91
2018-01-16T00:20:46.897Z,786.92
2018-01-16T00:20:50.828Z,786.91
2018-01-16T00:20:54.729Z,786.92
2018-01-16T00:20:58.840Z,786.89
2018-01-16T00:21:02.960Z,786.92
2018-01-16T00:21:06.755Z,786.91
2018-01-16T00:21:10.681Z,786.92
2018-01-16T00:21:14.364Z,786.91
2018-01-16T00:21:18.069Z,786.9
2018-01-16T00:21:22.187Z,786.87
2018-01-16T00:21:26.111Z,786.88
2018-01-16T00:21:30.039Z,786.9
2018-01-16T00:21:34.360Z,786.92
2018-01-16T00:21:38.176Z,786.92
2018-01-16T00:21:42.100Z,786.91
2018-01-16T00:21:46.005Z,786.9
2018-01-16T00:21:50.020Z,786.89
2018-01-16T00:21:53.825Z,786.86
2018-01-16T00:21:57.619Z,786.85
2018-01-16T00:22:01.542Z,786.86
2018-01-16T00:22:05.453Z,786.91
2018-01-16T00:22:09.471Z,786.9
2018-01-16T00:22:13.183Z,786.91
2018-01-16T00:22:16.983Z,786.95
2018-01-16T00:22:20.899Z,786.89
2018-01-16T00:22:24.714Z,786.93
2018-01-16T00:22:28.841Z,786.92
2018-01-16T00:22:32.666Z,786.93
2018-01-16T00:22:36.472Z,786.93
2018-01-16T00:22:40.290Z,786.92
2018-01-16T00:22:44.191Z,786.95
2018-01-16T00:22:48.115Z,786.92
2018-01-16T00:22:52.011Z,786.95
2018-01-16T00:22:56.156Z,786.93
2018-01-16T00:23:00.068Z,786.94
2018-01-16T00:23:04.042Z,786.94
2018-01-16T00:23:07.957Z,786.94
2018-01-16T00:23:11.984Z,786.93
2018-01-16T00:23:15.766Z,786.96
2018-01-16T00:23:19.744Z,786.98
2018-01-16T00:23:23.556Z,786.96
2018-01-16T00:23:27.673Z,786.95
2018-01-16T00:23:31.483Z,786.98
2018-01-16T00:23:35.384Z,786.98
2018-01-16T00:23:39.306Z,786.98
2018-01-16T00:23:43.210Z,786.98
2018-01-16T00:23:47.230Z,787.02
2018-01-16T00:23:51.146Z,786.96
2018-01-16T00:23:55.161Z,787.01
2018-01-16T00:23:59.092Z,787.01
2018-01-16T00:24:02.906Z,786.98
2018-01-16T00:24:07.023Z,787.03
2018-01-16T00:24:10.939Z,787.01
2018-01-16T00:24:15.059Z,787.01
2018-01-16T00:24:19.186Z,787
2018-01-16T00:24:23.092Z,787.03
2018-01-16T00:24:26.793Z,787.04
2018-01-16T00:24:30.786Z,787.03
2018-01-16T00:24:34.902Z,787.01
2018-01-16T00:24:38.917Z,787.05
2018-01-16T00:24:42.731Z,787.04
2018-01-16T00:24:46.880Z,787.08
2018-01-16T00:24:50.795Z,787.08
2018-01-16T00:24:54.932Z,787.09
2018-01-16T00:24:58.965Z,787.07
2018-01-16T00:25:03.202Z,787.08
2018-01-16T00:25:07.003Z,787.07
2018-01-16T00:25:10.909Z,787.09
2018-01-16T00:25:14.815Z,787.08
2018-01-16T00:25:18.745Z,787.12
2018-01-16T00:25:22.631Z,787.08
2018-01-16T00:25:26.423Z,787.09
2018-01-16T00:25:30.495Z,787.12
2018-01-16T00:25:34.407Z,787.09
2018-01-16T00:25:38.320Z,787.12
2018-01-16T00:25:42.240Z,787.17
2018-01-16T00:25:46.256Z,787.08
2018-01-16T00:25:50.320Z,787.15
2018-01-16T00:25:54.224Z,787.12
2018-01-16T00:25:58.027Z,787.19
2018-01-16T00:26:02.406Z,787.16
2018-01-16T00:26:06.218Z,787.19
2018-01-16T00:26:10.259Z,787.2
2018-01-16T00:26:14.181Z,787.22
2018-01-16T00:26:18.083Z,787.24
2018-01-16T00:26:22.109Z,787.2
2018-01-16T00:26:25.911Z,787.22
2018-01-16T00:26:29.816Z,787.25
2018-01-16T00:26:33.736Z,787.29
2018-01-16T00:26:37.743Z,787.25
2018-01-16T00:26:41.759Z,787.23
2018-01-16T00:26:45.672Z,787.23
2018-01-16T00:26:49.366Z,787.25
2018-01-16T00:26:53.176Z,787.22
2018-01-16T00:26:57.086Z,787.25
2018-01-16T00:27:00.887Z,787.25
2018-01-16T00:27:05.102Z,787.26
2018-01-16T00:27:09.117Z,787.24
2018-01-16T00:27:12.934Z,787.26
2018-01-16T00:27:16.645Z,787.25
2018-01-16T00:27:20.775Z,787.26
2018-01-16T00:27:24.803Z,787.24
2018-01-16T00:27:28.615Z,787.27
2018-01-16T00:27:32.535Z,787.19
2018-01-16T00:27:36.338Z,787.21
2018-01-16T00:27:40.246Z,787.19
2018-01-16T00:27:44.154Z,787.26
2018-01-16T00:27:48.165Z,787.25
2018-01-16T00:27:52.086Z,787.28
2018-01-16T00:27:55.896Z,787.29
2018-01-16T00:27:59.919Z,787.3
2018-01-16T00:28:03.728Z,787.29
2018-01-16T00:28:07.860Z,787.27
2018-01-16T00:28:11.896Z,787.27
2018-01-16T00:28:15.804Z,787.31
2018-01-16T00:28:19.610Z,787.32
2018-01-16T00:28:23.433Z,787.31
2018-01-16T00:28:27.544Z,787.3
2018-01-16T00:28:31.575Z,787.23
2018-01-16T00:28:35.593Z,787.33
2018-01-16T00:28:39.517Z,787.33
2018-01-16T00:28:43.522Z,787.3
2018-01-16T00:28:47.590Z,787.3
2018-01-16T00:28:51.396Z,787.34
2018-01-16T00:28:55.402Z,787.32
2018-01-16T00:28:59.311Z,787.33
2018-01-16T00:29:03.220Z,787.34
2018-01-16T00:29:07.133Z,787.35
2018-01-16T00:29:11.052Z,787.34
2018-01-16T00:29:15.278Z,787.32
2018-01-16T00:29:19.396Z,787.35
2018-01-16T00:29:23.417Z,787.35
2018-01-16T00:29:27.109Z,787.35
2018-01-16T00:29:30.995Z,787.34
2018-01-16T00:29:35.224Z,787.34
2018-01-16T00:29:39.130Z,787.33
2018-01-16T00:29:43.249Z,787.31
2018-01-16T00:29:47.160Z,787.32
2018-01-16T00:29:51.162Z,787.31
2018-01-16T00:29:55.331Z,787.4
2018-01-16T00:29:59.124Z,787.37
2018-01-16T00:30:03.045Z,787.4
2018-01-16T00:30:06.855Z,787.36
2018-01-16T00:30:10.881Z,787.41
2018-01-16T00:30:14.797Z,787.41
2018-01-16T00:30:18.808Z,787.44
2018-01-16T00:30:22.939Z,787.43
2018-01-16T00:30:26.970Z,787.48
2018-01-16T00:30:31.095Z,787.39
2018-01-16T00:30:35.008Z,787.41
2018-01-16T00:30:38.814Z,787.48
2018-01-16T00:30:42.622Z,787.47
2018-01-16T00:30:46.428Z,787.46
2018-01-16T00:30:50.253Z,787.45
2018-01-16T00:30:54.161Z,787.48
2018-01-16T00:30:58.057Z,787.45
2018-01-16T00:31:02.223Z,787.46
2018-01-16T00:31:06.347Z,787.48
2018-01-16T00:31:10.482Z,787.51
2018-01-16T00:31:14.517Z,787.51
2018-01-16T00:31:18.214Z,787.47
2018-01-16T00:31:22.140Z,787.5
2018-01-16T00:31:25.948Z,787.49
2018-01-16T00:31:29.755Z,787.49
2018-01-16T00:31:33.767Z,787.51
2018-01-16T00:31:37.587Z,787.49
2018-01-16T00:31:41.484Z,787.51
2018-01-16T00:31:45.404Z,787.51
2018-01-16T00:31:49.527Z,787.51
2018-01-16T00:31:53.647Z,787.52
2018-01-16T00:31:57.780Z,787.54
2018-01-16T00:32:01.846Z,787.5
2018-01-16T00:32:05.755Z,787.53
2018-01-16T00:32:09.668Z,787.51
2018-01-16T00:32:13.495Z,787.54
2018-01-16T00:32:17.619Z,787.55
2018-01-16T00:32:21.644Z,787.55
2018-01-16T00:32:25.652Z,787.6
2018-01-16T00:32:29.477Z,787.58
2018-01-16T00:32:33.397Z,787.61
2018-01-16T00:32:37.299Z,787.59
2018-01-16T00:32:41.211Z,787.59
2018-01-16T00:32:45.232Z,787.54
2018-01-16T00:32:49.449Z,787.58
2018-01-16T00:32:53.356Z,787.59
2018-01-16T00:32:57.381Z,787.57
2018-01-16T00:33:01.704Z,787.58
2018-01-16T00:33:05.544Z,787.6
2018-01-16T00:33:09.563Z,787.59
2018-01-16T00:33:13.377Z,787.57
2018-01-16T00:33:17.221Z,787.58
2018-01-16T00:33:21.141Z,787.62
2018-01-16T00:33:24.933Z,787.6
2018-01-16T00:33:28.631Z,787.6
2018-01-16T00:33:32.563Z,787.59
2018-01-16T00:33:36.603Z,787.63
2018-01-16T00:33:40.403Z,787.61
2018-01-16T00:33:44.311Z,787.63
2018-01-16T00:33:48.123Z,787.66
2018-01-16T00:33:52.462Z,787.62
2018-01-16T00:33:56.590Z,787.64
2018-01-16T00:34:00.616Z,787.63
2018-01-16T00:34:04.628Z,787.63
2018-01-16T00:34:08.550Z,787.63
2018-01-16T00:34:12.661Z,787.6
2018-01-16T00:34:16.802Z,787.62
2018-01-16T00:34:20.831Z,787.66
2018-01-16T00:34:24.772Z,787.61
2018-01-16T00:34:28.488Z,787.62
2018-01-16T00:34:32.433Z,787.64
2018-01-16T00:34:36.351Z,787.62
2018-01-16T00:34:40.170Z,787.61
2018-01-16T00:34:44.109Z,787.61
2018-01-16T00:34:48.231Z,787.63
2018-01-16T00:34:52.246Z,787.63
2018-01-16T00:34:56.490Z,787.62
2018-01-16T00:35:00.627Z,787.65
2018-01-16T00:35:04.744Z,787.64
2018-01-16T00:35:08.667Z,787.63
2018-01-16T00:35:12.376Z,787.65
2018-01-16T00:35:16.196Z,787.63
2018-01-16T00:35:20.217Z,787.64
2018-01-16T00:35:24.230Z,787.62
2018-01-16T00:35:28.402Z,787.64
2018-01-16T00:35:32.619Z,787.66
2018-01-16T00:35:36.648Z,787.66
2018-01-16T00:35:40.566Z,787.68
2018-01-16T00:35:44.385Z,787.66
2018-01-16T00:35:48.207Z,787.66
2018-01-16T00:35:52.228Z,787.64
2018-01-16T00:35:56.246Z,787.64
2018-01-16T00:36:00.274Z,787.64
2018-01-16T00:36:04.084Z,787.68
2018-01-16T00:36:08.029Z,787.65
2018-01-16T00:36:11.954Z,787.65
2018-01-16T00:36:15.973Z,787.65
2018-01-16T00:36:20.115Z,787.63
2018-01-16T00:36:24.258Z,787.69
2018-01-16T00:36:28.391Z,787.68
2018-01-16T00:36:32.421Z,787.7
2018-01-16T00:36:36.228Z,787.69
2018-01-16T00:36:40.153Z,787.69
2018-01-16T00:36:44.189Z,787.68
2018-01-16T00:36:47.896Z,787.66
2018-01-16T00:36:51.720Z,787.67
2018-01-16T00:36:55.834Z,787.65
2018-01-16T00:36:59.848Z,787.67
2018-01-16T00:37:03.669Z,787.7
2018-01-16T00:37:07.811Z,787.71
2018-01-16T00:37:11.839Z,787.68
2018-01-16T00:37:15.874Z,787.68
2018-01-16T00:37:20.001Z,787.66
2018-01-16T00:37:23.944Z,787.65
2018-01-16T00:37:27.985Z,787.64
2018-01-16T00:37:31.695Z,787.71
2018-01-16T00:37:35.510Z,787.69
2018-01-16T00:37:39.419Z,787.67
2018-01-16T00:37:43.350Z,787.69
2018-01-16T00:37:47.187Z,787.7
2018-01-16T00:37:50.998Z,787.68
2018-01-16T00:37:54.920Z,787.71
2018-01-16T00:37:58.961Z,787.69
2018-01-16T00:38:02.686Z,787.72
2018-01-16T00:38:06.421Z,787.73
2018-01-16T00:38:10.243Z,787.74
2018-01-16T00:38:13.944Z,787.74
2018-01-16T00:38:17.961Z,787.73
2018-01-16T00:38:21.980Z,787.77
2018-01-16T00:38:25.900Z,787.74
2018-01-16T00:38:29.926Z,787.72
2018-01-16T00:38:33.865Z,787.7
2018-01-16T00:38:37.784Z,787.74
2018-01-16T00:38:41.913Z,787.72
2018-01-16T00:38:45.737Z,787.73
2018-01-16T00:38:49.774Z,787.77
2018-01-16T00:38:53.901Z,787.69
2018-01-16T00:38:57.920Z,787.66
2018-01-16T00:39:01.748Z,787.71
2018-01-16T00:39:05.769Z,787.71
2018-01-16T00:39:09.702Z,787.7
2018-01-16T00:39:13.831Z,787.71
2018-01-16T00:39:17.993Z,787.69
2018-01-16T00:39:21.834Z,787.75
2018-01-16T00:39:25.757Z,787.7
2018-01-16T00:39:29.800Z,787.74
2018-01-16T00:39:33.845Z,787.8
2018-01-16T00:39:37.683Z,787.79
2018-01-16T00:39:41.815Z,787.77
2018-01-16T00:39:45.851Z,787.76
2018-01-16T00:39:49.579Z,787.79
2018-01-16T00:39:53.612Z,787.79
2018-01-16T00:39:57.756Z,787.82
2018-01-16T00:40:01.773Z,787.86
2018-01-16T00:40:05.691Z,787.77
2018-01-16T00:40:09.510Z,787.8
2018-01-16T00:40:13.322Z,787.79
2018-01-16T00:40:17.243Z,787.82
2018-01-16T00:40:21.041Z,787.78
2018-01-16T00:40:25.108Z,787.79
2018-01-16T00:40:29.018Z,787.8
2018-01-16T00:40:32.770Z,787.82
2018-01-16T00:40:36.789Z,787.8
2018-01-16T00:40:40.709Z,787.81
2018-01-16T00:40:44.527Z,787.76
2018-01-16T00:40:48.424Z,787.79
2018-01-16T00:40:52.231Z,787.76
2018-01-16T00:40:56.046Z,787.78
2018-01-16T00:40:59.948Z,787.79
2018-01-16T00:41:03.949Z,787.79
2018-01-16T00:41:07.868Z,787.8
2018-01-16T00:41:11.886Z,787.87
2018-01-16T00:41:16.008Z,787.86
2018-01-16T00:41:20.072Z,787.85
2018-01-16T00:41:24.210Z,787.91
2018-01-16T00:41:28.114Z,787.86
2018-01-16T00:41:32.135Z,787.91
2018-01-16T00:41:35.947Z,787.88
2018-01-16T00:41:39.742Z,787.9
2018-01-16T00:41:43.647Z,787.9
2018-01-16T00:41:47.463Z,787.86
2018-01-16T00:41:51.466Z,787.91
2018-01-16T00:41:55.387Z,787.86
2018-01-16T00:41:59.529Z,787.88
2018-01-16T00:42:03.532Z,787.9
2018-01-16T00:42:07.446Z,787.93
2018-01-16T00:42:11.569Z,787.92
2018-01-16T00:42:15.586Z,787.94
2018-01-16T00:42:19.397Z,787.92
2018-01-16T00:42:23.206Z,787.91
2018-01-16T00:42:27.114Z,787.9
2018-01-16T00:42:31.022Z,787.93
2018-01-16T00:42:34.821Z,787.93
2018-01-16T00:42:38.622Z,787.89
2018-01-16T00:42:42.633Z,787.91
2018-01-16T00:42:46.548Z,787.91
2018-01-16T00:42:50.252Z,787.91
2018-01-16T00:42:54.066Z,787.9
2018-01-16T00:42:57.970Z,787.86
2018-01-16T00:43:02.105Z,787.88
2018-01-16T00:43:05.914Z,787.89
2018-01-16T00:43:10.026Z,787.94
2018-01-16T00:43:13.924Z,787.89
2018-01-16T00:43:17.948Z,787.87
2018-01-16T00:43:22.066Z,787.89
2018-01-16T00:43:25.982Z,787.88
2018-01-16T00:43:29.781Z,787.9
2018-01-16T00:43:33.699Z,787.89
2018-01-16T00:43:37.408Z,787.9
2018-01-16T00:43:41.337Z,787.9
2018-01-16T00:43:45.258Z,787.87
2018-01-16T00:43:49.061Z,787.96
2018-01-16T00:43:52.778Z,787.93
2018-01-16T00:43:56.592Z,787.95
2018-01-16T00:44:00.525Z,787.97
2018-01-16T00:44:04.472Z,787.96
2018-01-16T00:44:08.383Z,787.94
2018-01-16T00:44:12.404Z,787.96
2018-01-16T00:44:16.320Z,787.95
2018-01-16T00:44:20.220Z,787.94
2018-01-16T00:44:24.236Z,787.96
2018-01-16T00:44:28.172Z,787.97
2018-01-16T00:44:32.185Z,787.97
2018-01-16T00:44:36.095Z,788
2018-01-16T00:44:39.892Z,787.97
2018-01-16T00:44:43.811Z,787.98
2018-01-16T00:44:47.724Z,787.97
2018-01-16T00:44:52.048Z,787.98
2018-01-16T00:44:56.068Z,787.97
2018-01-16T00:44:59.876Z,787.97
2018-01-16T00:45:03.910Z,788
2018-01-16T00:45:07.910Z,788.01
2018-01-16T00:45:11.707Z,788.01
2018-01-16T00:45:15.738Z,788.01
2018-01-16T00:45:19.550Z,787.97
2018-01-16T00:45:23.365Z,787.99
2018-01-16T00:45:27.486Z,788.02
2018-01-16T00:45:31.418Z,788
2018-01-16T00:45:35.352Z,787.99
2018-01-16T00:45:39.369Z,788.03
2018-01-16T00:45:43.285Z,788.02
2018-01-16T00:45:47.096Z,788.01
2018-01-16T00:45:50.954Z,788.02
2018-01-16T00:45:54.871Z,788.03
2018-01-16T00:45:58.776Z,788.01
2018-01-16T00:46:02.804Z,788.01
2018-01-16T00:46:06.615Z,788.02
2018-01-16T00:46:10.529Z,788.03
2018-01-16T00:46:14.221Z,788.01
2018-01-16T00:46:18.161Z,788.02
2018-01-16T00:46:22.189Z,787.97
2018-01-16T00:46:25.884Z,787.97
2018-01-16T00:46:29.680Z,787.97
2018-01-16T00:46:33.482Z,788.02
2018-01-16T00:46:37.171Z,788.03
2018-01-16T00:46:40.981Z,787.97
2018-01-16T00:46:44.898Z,787.94
2018-01-16T00:46:48.906Z,787.92
2018-01-16T00:46:52.946Z,787.95
2018-01-16T00:46:56.962Z,787.99
2018-01-16T00:47:00.864Z,788.01
2018-01-16T00:47:04.869Z,787.96
2018-01-16T00:47:08.991Z,787.97
2018-01-16T00:47:12.791Z,787.97
2018-01-16T00:47:16.700Z,788
2018-01-16T00:47:20.522Z,787.97
2018-01-16T00:47:24.557Z,787.95
2018-01-16T00:47:28.468Z,787.93
2018-01-16T00:47:32.498Z,787.98
2018-01-16T00:47:36.505Z,787.91
2018-01-16T00:47:40.419Z,787.92
2018-01-16T00:47:44.353Z,787.9
2018-01-16T00:47:48.175Z,787.88
2018-01-16T00:47:52.181Z,787.92
2018-01-16T00:47:56.281Z,787.94
2018-01-16T00:47:59.975Z,787.94
2018-01-16T00:48:03.893Z,787.93
2018-01-16T00:48:07.706Z,787.92
2018-01-16T00:48:11.513Z,787.93
2018-01-16T00:48:15.218Z,787.9
2018-01-16T00:48:19.016Z,787.91
2018-01-16T00:48:22.820Z,787.87
2018-01-16T00:48:26.736Z,787.88
2018-01-16T00:48:30.653Z,787.89
2018-01-16T00:48:34.567Z,787.88
2018-01-16T00:48:38.576Z,787.88
2018-01-16T00:48:42.374Z,787.9
2018-01-16T00:48:46.196Z,787.91
2018-01-16T00:48:50.030Z,787.9
2018-01-16T00:48:54.163Z,787.88
2018-01-16T00:48:58.179Z,787.9
2018-01-16T00:49:02.095Z,787.85
2018-01-16T00:49:06.305Z,787.87
2018-01-16T00:49:10.211Z,787.84
2018-01-16T00:49:13.901Z,787.87
2018-01-16T00:49:17.908Z,787.85
2018-01-16T00:49:21.808Z,787.84